createdAt,value
2023-02-08T01:50:18.103Z,23.25
2023-02-08T01:51:18.127Z,23.23
2023-02-08T01:52:18.178Z,23.23
2023-02-08T01:53:18.192Z,23.23
2023-02-08T01:54:18.202Z,23.26
2023-02-08T01:55:18.219Z,23.25
2023-02-08T01:56:18.250Z,23.23
2023-02-08T01:57:18.250Z,23.25
2023-02-08T01:58:18.287Z,23.23
2023-02-08T01:59:18.287Z,23.26
2023-02-08T02:00:18.304Z,23.23
2023-02-08T02:01:18.379Z,23.25
2023-02-08T02:02:18.362Z,23.23
2023-02-08T02:03:18.350Z,23.25
2023-02-08T02:04:18.376Z,23.25
2023-02-08T02:05:18.377Z,23.26
2023-02-08T02:06:18.382Z,23.22
2023-02-08T02:07:18.394Z,23.25
2023-02-08T02:08:18.405Z,23.26
2023-02-08T02:09:18.409Z,23.26
2023-02-08T02:10:18.431Z,23.25
2023-02-08T02:11:18.449Z,23.25
2023-02-08T02:12:18.450Z,23.26
2023-02-08T02:13:18.511Z,23.23
2023-02-08T02:14:18.499Z,23.23
2023-02-08T02:15:18.522Z,23.26
2023-02-08T02:16:18.556Z,23.26
2023-02-08T02:17:18.557Z,23.28
2023-02-08T02:18:18.599Z,23.23
2023-02-08T02:19:18.615Z,23.26
2023-02-08T02:20:18.633Z,23.22
2023-02-08T02:21:18.641Z,23.23
2023-02-08T02:22:18.681Z,23.25
2023-02-08T02:23:18.680Z,23.23
2023-02-08T02:24:18.698Z,23.23
2023-02-08T02:25:18.734Z,23.25
2023-02-08T02:26:18.753Z,23.25
2023-02-08T02:27:18.774Z,23.26
2023-02-08T02:28:18.851Z,23.25
2023-02-08T02:29:18.815Z,23.25
2023-02-08T02:30:18.836Z,23.23
2023-02-08T02:31:19.017Z,23.26
2023-02-08T02:32:18.884Z,23.23
2023-02-08T02:33:18.903Z,23.25
2023-02-08T02:34:18.914Z,23.23
2023-02-08T02:35:18.937Z,23.23
2023-02-08T02:36:18.955Z,23.23
2023-02-08T02:37:18.973Z,23.25
2023-02-08T02:38:18.990Z,23.25
2023-02-08T02:39:19.012Z,23.25
2023-02-08T02:40:19.027Z,23.25
2023-02-08T02:41:19.040Z,23.25
2023-02-08T02:42:19.058Z,23.25
2023-02-08T02:43:19.073Z,23.23
2023-02-08T02:44:19.101Z,23.25
2023-02-08T02:45:19.242Z,23.23
2023-02-08T02:46:19.126Z,23.23
2023-02-08T02:47:19.156Z,23.23
2023-02-08T02:48:19.174Z,23.25
2023-02-08T02:49:19.197Z,23.23
2023-02-08T02:50:19.218Z,23.25
2023-02-08T02:51:19.225Z,23.22
2023-02-08T02:52:19.262Z,23.23
2023-02-08T02:53:19.263Z,23.26
2023-02-08T02:54:19.292Z,23.25
2023-02-08T02:55:19.323Z,23.23
2023-02-08T02:56:19.316Z,23.22
2023-02-08T02:57:19.328Z,23.23
2023-02-08T02:58:19.354Z,23.23
2023-02-08T02:59:19.374Z,23.23
2023-02-08T03:00:19.383Z,23.21
2023-02-08T03:01:19.465Z,23.22
2023-02-08T03:02:19.410Z,23.23
2023-02-08T03:03:19.426Z,23.22
2023-02-08T03:26:19.834Z,23.23
2023-02-08T03:32:19.915Z,23.25
2023-02-08T03:33:19.950Z,23.22
2023-02-08T03:34:19.958Z,23.22
2023-02-08T03:35:19.978Z,23.23
2023-02-08T03:36:19.983Z,23.21
2023-02-08T03:37:20.015Z,23.26
2023-02-08T03:38:20.026Z,23.21
2023-02-08T03:39:20.057Z,23.21
2023-02-08T03:40:20.090Z,23.25
2023-02-08T03:41:20.094Z,23.23
2023-02-08T03:42:20.117Z,23.25
2023-02-08T03:43:20.146Z,23.21
2023-02-08T03:44:20.170Z,23.22
2023-02-08T03:45:20.184Z,23.21
2023-02-08T03:46:20.294Z,23.22
2023-02-08T03:47:20.223Z,23.21
2023-02-08T03:48:20.243Z,23.23
2023-02-08T03:49:20.262Z,23.22
2023-02-08T03:50:20.288Z,23.22
2023-02-08T03:51:20.313Z,23.23
2023-02-08T03:52:20.338Z,23.22
2023-02-08T03:53:20.350Z,23.23
2023-02-08T03:54:20.380Z,23.22
2023-02-08T03:55:20.397Z,23.22
2023-02-08T03:56:20.423Z,23.21
2023-02-08T03:57:20.442Z,23.21
2023-02-08T03:58:20.461Z,23.22
2023-02-08T03:59:20.484Z,23.22
2023-02-08T04:00:20.503Z,23.23
2023-02-08T04:01:20.552Z,23.21
2023-02-08T04:02:20.584Z,23.21
2023-02-08T04:03:20.570Z,23.23
2023-02-08T04:04:20.580Z,23.22
2023-02-08T04:05:20.605Z,23.22
2023-02-08T04:06:20.616Z,23.22
2023-02-08T04:07:20.627Z,23.23
2023-02-08T04:08:20.637Z,23.25
2023-02-08T04:09:20.706Z,23.25
2023-02-08T04:10:20.666Z,23.25
2023-02-08T04:11:20.699Z,23.23
2023-02-08T04:12:20.709Z,23.25
2023-02-08T04:13:20.733Z,23.28
2023-02-08T04:14:20.727Z,23.25
2023-02-08T04:15:20.749Z,23.26
2023-02-08T04:16:20.769Z,23.28
2023-02-08T04:17:20.785Z,23.29
2023-02-08T04:18:20.791Z,23.29
2023-02-08T04:19:20.819Z,23.29
2023-02-08T04:20:20.827Z,23.29
2023-02-08T04:21:20.843Z,23.30
2023-02-08T04:22:20.837Z,23.30
2023-02-08T04:23:20.834Z,23.30
2023-02-08T04:24:20.839Z,23.32
2023-02-08T04:25:20.842Z,23.35
2023-02-08T04:26:20.833Z,23.33
2023-02-08T04:27:20.829Z,23.32
2023-02-08T04:28:20.865Z,23.35
2023-02-08T04:30:20.814Z,23.35
2023-02-08T05:15:21.460Z,23.52
2023-02-08T05:16:21.543Z,23.52
2023-02-08T05:17:21.508Z,23.52
2023-02-08T05:18:21.541Z,23.52
2023-02-08T05:19:21.553Z,23.52
2023-02-08T05:20:21.595Z,23.52
2023-02-08T05:21:21.636Z,23.55
2023-02-08T05:22:21.664Z,23.53
2023-02-08T05:23:21.727Z,23.50
2023-02-08T05:24:21.781Z,23.52
2023-02-08T05:25:21.814Z,23.53
2023-02-08T05:26:21.843Z,23.52
2023-02-08T05:27:21.867Z,23.52
2023-02-08T05:28:21.895Z,23.53
2023-02-08T05:29:21.917Z,23.53
2023-02-08T05:30:21.961Z,23.53
2023-02-08T05:31:22.054Z,23.52
2023-02-08T05:32:22.003Z,23.53
2023-02-08T05:33:22.030Z,23.53
2023-02-08T05:34:22.069Z,23.53
2023-02-08T05:35:22.088Z,23.52
2023-02-08T05:36:22.089Z,23.55
2023-02-08T05:37:22.125Z,23.50
2023-02-08T05:38:22.147Z,23.50
2023-02-08T05:39:22.161Z,23.53
2023-02-08T05:40:22.199Z,23.53
2023-02-08T05:41:22.304Z,23.53
2023-02-08T05:42:22.308Z,23.52
2023-02-08T05:43:22.349Z,23.55
2023-02-08T05:44:22.359Z,23.55
2023-02-08T05:45:22.401Z,23.52
2023-02-08T05:46:22.473Z,23.50
2023-02-08T05:47:22.452Z,23.52
2023-02-08T05:48:22.483Z,23.52
2023-02-08T05:49:22.521Z,23.53
2023-02-08T05:50:22.493Z,23.53
2023-02-08T05:51:22.507Z,23.52
2023-02-08T05:52:22.508Z,23.53
2023-02-08T05:53:22.515Z,23.50
2023-02-08T05:54:22.551Z,23.52
2023-02-08T05:55:22.596Z,23.50
2023-02-08T05:56:22.670Z,23.50
2023-02-08T05:57:22.699Z,23.52
2023-02-08T05:58:22.711Z,23.53
2023-02-08T05:59:22.716Z,23.52
2023-02-08T06:00:22.739Z,23.52
2023-02-08T06:01:22.759Z,23.53
2023-02-08T06:02:22.775Z,23.50
2023-02-08T06:03:22.832Z,23.50
2023-02-08T06:04:22.789Z,23.52
2023-02-08T06:05:22.781Z,23.53
2023-02-08T06:06:22.786Z,23.53
2023-02-08T06:07:22.809Z,23.50
2023-02-08T06:08:22.830Z,23.50
2023-02-08T06:09:22.879Z,23.52
2023-02-08T06:10:22.901Z,23.53
2023-02-08T06:11:22.954Z,23.52
2023-02-08T06:12:22.904Z,23.50
2023-02-08T06:13:22.927Z,23.49
2023-02-08T06:14:22.953Z,23.50
2023-02-08T06:15:22.983Z,23.52
2023-02-08T06:16:23.011Z,23.53
2023-02-08T06:17:23.010Z,23.49
2023-02-08T06:18:23.032Z,23.52
2023-02-08T06:19:23.046Z,23.49
2023-02-08T06:20:23.080Z,23.52
2023-02-08T06:21:24.564Z,23.49
2023-02-08T06:22:23.057Z,23.50
2023-02-08T06:23:23.070Z,23.49
2023-02-08T06:24:23.098Z,23.50
2023-02-08T06:25:23.135Z,23.50
2023-02-08T06:26:23.173Z,23.50
2023-02-08T06:27:23.180Z,23.53
2023-02-08T06:28:23.266Z,23.53
2023-02-08T06:29:23.232Z,23.55
2023-02-08T06:30:23.235Z,23.55
2023-02-08T06:31:23.297Z,23.55
2023-02-08T06:32:23.354Z,23.56
2023-02-08T06:33:23.348Z,23.57
2023-02-08T06:34:23.460Z,23.60
2023-02-08T06:35:24.307Z,23.59
2023-02-08T06:36:23.511Z,23.59
2023-02-08T06:37:23.527Z,23.59
2023-02-08T06:38:23.540Z,23.59
2023-02-08T06:39:23.587Z,23.59
2023-02-08T06:40:23.617Z,23.59
2023-02-08T06:41:23.649Z,23.57
2023-02-08T06:42:23.665Z,23.55
2023-02-08T06:43:23.663Z,23.56
2023-02-08T06:44:23.673Z,23.57
2023-02-08T06:45:23.694Z,23.57
2023-02-08T06:46:23.689Z,23.52
2023-02-08T06:47:23.716Z,23.56
2023-02-08T06:48:23.716Z,23.53
2023-02-08T06:49:23.702Z,23.53
2023-02-08T06:50:24.249Z,23.53
2023-02-08T06:51:23.682Z,23.55
2023-02-08T06:52:23.688Z,23.52
2023-02-08T06:53:23.680Z,23.53
2023-02-08T06:54:23.724Z,23.52
2023-02-08T06:55:23.714Z,23.52
2023-02-08T06:56:23.704Z,23.53
2023-02-08T06:57:23.736Z,23.50
2023-02-08T06:58:23.754Z,23.50
2023-02-08T06:59:23.761Z,23.50
2023-02-08T07:00:23.775Z,23.48
2023-02-08T07:01:23.862Z,23.50
2023-02-08T07:02:23.872Z,23.50
2023-02-08T07:03:23.785Z,23.49
2023-02-08T07:04:23.799Z,23.49
2023-02-08T07:05:23.795Z,23.48
2023-02-08T07:06:23.804Z,23.52
2023-02-08T07:07:23.799Z,23.50
2023-02-08T07:08:23.811Z,23.50
2023-02-08T07:09:23.826Z,23.50
2023-02-08T07:10:23.818Z,23.48
2023-02-08T07:11:23.832Z,23.49
2023-02-08T07:12:23.837Z,23.48
2023-02-08T07:13:23.835Z,23.49
2023-02-08T07:14:23.857Z,23.49
2023-02-08T07:15:23.857Z,23.50
2023-02-08T07:16:23.891Z,23.49
2023-02-08T07:17:23.857Z,23.52
2023-02-08T07:18:23.854Z,23.50
2023-02-08T07:19:23.850Z,23.49
2023-02-08T07:20:23.872Z,23.50
2023-02-08T07:21:23.828Z,23.49
2023-02-08T07:22:23.863Z,23.49
2023-02-08T07:23:23.877Z,23.53
2023-02-08T10:10:00.212Z,29.11
2023-02-08T10:11:00.064Z,30.53
2023-02-08T10:11:59.980Z,31.97
2023-02-08T10:12:59.884Z,33.23
2023-02-08T10:13:59.854Z,34.19
2023-02-08T10:14:59.739Z,34.81
2023-02-08T10:15:59.707Z,34.84
2023-02-08T10:16:59.551Z,34.40
2023-02-08T10:17:59.510Z,33.71
2023-02-08T10:19:59.224Z,32.46
2023-02-08T10:20:59.107Z,31.94
2023-02-08T10:21:58.976Z,31.45
2023-02-08T10:22:58.830Z,31.07
2023-02-08T10:23:58.687Z,30.71
2023-02-08T10:24:58.587Z,30.39
2023-02-08T10:25:58.488Z,30.08
2023-02-08T10:26:58.368Z,29.81
2023-02-08T10:27:58.262Z,29.54
2023-02-08T10:28:58.193Z,29.30
2023-02-08T12:48:49.514Z,24.79
2023-02-08T12:57:49.129Z,24.66
2023-02-08T12:59:49.059Z,24.66
2023-02-08T13:00:49.026Z,24.69
2023-02-08T13:01:48.989Z,24.66
2023-02-08T13:02:48.956Z,24.65
2023-02-08T13:03:48.883Z,24.63
2023-02-08T13:04:48.845Z,24.60
2023-02-08T13:06:48.762Z,24.59
2023-02-08T13:07:48.741Z,24.62
2023-02-08T13:08:48.712Z,24.58
2023-02-08T13:12:48.601Z,24.55
2023-02-08T13:13:48.582Z,24.52
2023-02-08T13:14:48.551Z,24.52
2023-02-08T13:15:48.554Z,24.52
2023-02-08T13:16:48.498Z,24.49
2023-02-08T13:17:48.499Z,24.48
2023-02-08T13:18:48.466Z,24.46
2023-02-08T13:19:59.737Z,24.49
2023-02-08T13:20:49.372Z,24.45
2023-02-08T13:21:48.275Z,24.43
2023-02-08T13:22:48.197Z,24.43
2023-02-08T13:23:52.917Z,24.45
2023-02-08T13:24:52.446Z,24.42
2023-02-08T13:25:48.958Z,24.42
2023-02-08T14:49:41.147Z,23.96
2023-02-08T14:50:41.090Z,23.96
2023-02-08T14:51:41.028Z,23.99
2023-02-08T14:52:40.957Z,23.97
2023-02-08T14:53:40.897Z,23.97
2023-02-08T14:54:40.833Z,23.99
2023-02-08T14:55:40.826Z,23.96
2023-02-08T14:56:40.696Z,23.96
2023-02-08T14:57:40.643Z,23.91
2023-02-08T14:58:40.564Z,23.96
2023-02-08T14:59:40.507Z,23.93
2023-02-08T15:00:40.466Z,23.91
2023-02-08T15:01:44.119Z,23.91
2023-02-08T15:02:40.293Z,23.91
2023-02-08T15:03:40.203Z,23.91
2023-02-08T15:04:40.117Z,23.91
2023-02-08T15:05:40.024Z,23.90
2023-02-08T15:06:39.939Z,23.90
2023-02-08T15:07:39.851Z,23.91
2023-02-08T15:08:39.767Z,23.90
2023-02-08T15:09:39.676Z,23.93
2023-02-08T15:10:39.602Z,23.90
2023-02-08T15:11:39.513Z,23.90
2023-02-08T15:12:39.445Z,23.90
2023-02-08T15:13:39.368Z,23.90
2023-02-08T15:14:39.266Z,23.87
2023-02-08T15:15:39.194Z,23.91
2023-02-08T15:16:39.118Z,23.88
2023-02-08T15:17:39.026Z,23.90
2023-02-08T15:18:38.923Z,23.88
2023-02-08T15:19:38.844Z,23.85
2023-02-08T15:20:38.753Z,23.88
2023-02-08T15:21:38.679Z,23.85
2023-02-08T15:22:38.596Z,23.88
2023-02-08T15:23:38.596Z,23.88
2023-02-08T15:24:38.424Z,23.84
2023-02-08T15:25:38.333Z,23.87
2023-02-08T15:26:38.265Z,23.87
2023-02-08T15:27:38.190Z,23.85
2023-02-08T15:47:36.547Z,23.81
2023-02-08T15:48:36.450Z,23.80
2023-02-08T15:49:36.370Z,23.79
2023-02-08T15:50:36.286Z,23.80
2023-02-08T15:51:36.212Z,23.79
2023-02-08T15:52:36.134Z,23.79
2023-02-08T15:53:36.066Z,23.79
2023-02-08T15:54:35.964Z,23.77
2023-02-08T15:55:35.883Z,23.80
2023-02-08T15:56:39.033Z,23.79
2023-02-08T15:57:35.709Z,23.77
2023-02-08T15:58:35.654Z,23.76
2023-02-08T15:59:35.545Z,23.79
2023-02-08T16:00:35.462Z,23.76
2023-02-08T16:01:35.435Z,23.77
2023-02-08T16:02:35.282Z,23.76
2023-02-08T16:03:35.289Z,23.76
2023-02-08T18:23:29.204Z,23.53
2023-02-08T18:24:29.168Z,23.55
2023-02-08T18:25:29.147Z,23.56
2023-02-08T18:26:29.125Z,23.53
2023-02-08T18:27:29.095Z,23.55
2023-02-08T18:28:29.138Z,23.55
2023-02-08T18:29:29.046Z,23.53
2023-02-08T18:30:29.019Z,23.55
2023-02-08T18:31:29.082Z,23.52
2023-02-08T18:32:28.968Z,23.55
2023-02-08T18:33:28.952Z,23.53
2023-02-08T18:34:28.916Z,23.55
2023-02-08T18:35:28.899Z,23.53
2023-02-08T18:36:28.871Z,23.52
2023-02-08T18:37:28.875Z,23.55
2023-02-08T18:38:28.834Z,23.53
2023-02-08T18:39:28.801Z,23.53
2023-02-08T18:40:30.469Z,23.53
2023-02-08T18:41:28.718Z,23.50
2023-02-08T18:42:28.636Z,23.53
2023-02-08T18:43:28.545Z,23.53
2023-02-08T18:44:28.472Z,23.50
2023-02-08T18:45:28.416Z,23.55
2023-02-08T18:46:28.367Z,23.53
2023-02-08T18:47:28.251Z,23.52
2023-02-08T18:48:28.184Z,23.50
2023-02-08T18:49:28.098Z,23.50
2023-02-08T18:50:28.028Z,23.53
2023-02-08T18:51:27.957Z,23.53
2023-02-08T18:52:28.851Z,23.53
2023-02-08T18:53:27.774Z,23.52
2023-02-08T18:54:27.702Z,23.52
2023-02-08T18:55:27.633Z,23.55
2023-02-08T18:56:27.563Z,23.55
2023-02-08T18:57:27.479Z,23.53
2023-02-08T18:58:27.442Z,23.53
2023-02-08T18:59:27.421Z,23.55
2023-02-08T19:00:27.426Z,23.53
2023-02-08T19:01:27.361Z,23.52
2023-02-08T19:02:27.361Z,23.49
2023-02-08T19:03:27.310Z,23.53
2023-02-08T19:04:27.284Z,23.52
2023-02-08T19:05:27.907Z,23.52
2023-02-08T19:06:27.260Z,23.49
2023-02-08T19:07:27.247Z,23.52
2023-02-08T19:08:27.182Z,23.55
2023-02-08T19:09:27.170Z,23.49
2023-02-08T19:10:27.210Z,23.52
2023-02-08T19:11:27.166Z,23.50
2023-02-08T19:12:27.087Z,23.49
2023-02-08T19:13:27.065Z,23.50
2023-02-08T19:14:27.038Z,23.50
2023-02-08T19:15:27.026Z,23.52
2023-02-08T19:16:27.028Z,23.50
2023-02-08T19:17:26.984Z,23.50
2023-02-08T19:18:26.951Z,23.50
2023-02-08T19:19:26.927Z,23.49
2023-02-08T19:20:26.906Z,23.49
2023-02-08T19:21:26.862Z,23.50
2023-02-08T19:22:26.852Z,23.49
2023-02-08T19:23:26.825Z,23.49
2023-02-08T19:24:26.792Z,23.49
2023-02-08T19:25:26.751Z,23.48
2023-02-08T19:26:26.737Z,23.50
2023-02-08T19:27:26.683Z,23.50
2023-02-08T19:28:26.677Z,23.49
2023-02-08T19:29:26.629Z,23.49
2023-02-08T19:30:26.607Z,23.49
2023-02-08T19:31:26.775Z,23.50
2023-02-08T19:32:26.569Z,23.52
2023-02-08T19:33:26.543Z,23.50
2023-02-08T19:34:26.512Z,23.48
2023-02-08T19:35:26.507Z,23.49
2023-02-08T19:36:26.476Z,23.46
2023-02-08T19:37:26.459Z,23.49
2023-02-08T19:38:26.425Z,23.50
2023-02-08T19:39:26.406Z,23.52
2023-02-08T19:40:26.368Z,23.50
2023-02-08T19:41:26.301Z,23.49
2023-02-08T19:42:26.275Z,23.48
2023-02-08T19:43:26.254Z,23.50
2023-02-08T19:44:29.086Z,23.52
2023-02-08T19:45:26.193Z,23.50
2023-02-08T19:46:26.068Z,23.52
2023-02-08T19:47:43.481Z,23.50
2023-02-08T19:48:26.918Z,23.49
2023-02-08T19:49:25.925Z,23.48
2023-02-08T19:50:25.751Z,23.49
2023-02-08T19:51:25.688Z,23.49
2023-02-08T19:52:25.612Z,23.49
2023-02-08T19:53:25.541Z,23.48
2023-02-08T19:54:25.462Z,23.50
2023-02-08T19:55:25.378Z,23.49
2023-02-08T19:56:25.312Z,23.48
2023-02-08T19:57:25.229Z,23.48
2023-02-08T21:01:23.883Z,23.45
2023-02-08T21:21:23.490Z,23.48
2023-02-08T21:22:23.469Z,23.48
2023-02-08T21:23:23.433Z,23.45
2023-02-08T21:24:23.439Z,23.45
2023-02-08T21:25:23.414Z,23.46
2023-02-08T21:26:23.398Z,23.45
2023-02-08T21:27:23.374Z,23.46
2023-02-08T21:28:23.517Z,23.46
2023-02-08T21:29:23.333Z,23.46
2023-02-08T21:30:23.296Z,23.45
2023-02-08T21:31:23.405Z,23.44
2023-02-08T21:32:23.270Z,23.44
2023-02-08T21:33:23.249Z,23.45
2023-02-08T21:34:23.236Z,23.48
2023-02-08T21:35:23.236Z,23.45
2023-02-08T21:36:23.274Z,23.46
2023-02-08T21:37:23.179Z,23.45
2023-02-08T21:38:23.163Z,23.44
2023-02-08T21:39:23.157Z,23.44
2023-02-08T21:40:23.120Z,23.45
2023-02-08T21:41:23.156Z,23.46
2023-02-08T21:42:23.085Z,23.45
2023-02-08T21:43:23.077Z,23.45
2023-02-08T21:44:23.059Z,23.44
2023-02-08T21:45:23.025Z,23.44
2023-02-08T21:46:23.192Z,23.45
2023-02-08T21:47:23.002Z,23.44
2023-02-08T21:48:22.976Z,23.45
2023-02-08T21:49:22.960Z,23.45
2023-02-08T21:50:22.928Z,23.44
2023-02-08T21:51:22.929Z,23.42
2023-02-08T21:52:22.895Z,23.44
